createdAt,value
2022-07-30T06:41:00.626Z,99.90
2022-07-30T06:43:29.633Z,99.90
2022-07-30T06:55:47.033Z,96.50
2022-07-30T12:05:03.626Z,81.30
2022-07-30T12:07:30.873Z,81.80
2022-07-30T12:13:07.948Z,81.40
2022-07-30T12:15:38.475Z,81.20
2022-07-30T18:37:02.017Z,80.50
2022-07-30T18:39:29.215Z,81.70
2022-07-30T18:41:56.411Z,82.30
2022-07-30T18:44:23.647Z,83.50
2022-07-30T18:46:50.861Z,83.30
2022-07-30T18:52:06.955Z,83.10
2022-07-30T18:54:34.907Z,83.30
2022-07-30T19:06:56.383Z,99.90
2022-07-30T19:19:14.887Z,83.40
2022-07-30T19:21:42.580Z,84.50
2022-07-30T19:24:10.296Z,84.60
2022-07-30T19:26:38.277Z,85.10
2022-07-30T19:29:06.688Z,85.10
2022-07-30T19:31:34.465Z,84.80
2022-07-30T19:34:01.925Z,84.90
2022-07-30T19:36:29.217Z,84.50
2022-07-30T19:38:57.179Z,84.60
2022-07-30T19:41:25.050Z,84.60
2022-07-30T19:43:57.836Z,85.00
2022-07-30T19:46:41.270Z,84.90
2022-07-30T19:49:10.128Z,84.80
2022-07-30T19:52:10.461Z,84.90
2022-07-30T19:54:25.521Z,85.30
2022-07-30T19:56:53.115Z,86.00
2022-07-30T19:59:43.164Z,85.40
2022-07-30T20:02:08.443Z,85.60
2022-07-30T20:04:37.255Z,86.20
2022-07-30T20:07:04.630Z,85.90
2022-07-30T20:09:31.876Z,85.60
2022-07-30T20:12:02.281Z,86.00
2022-07-30T20:14:29.961Z,85.80
2022-07-30T20:17:01.965Z,86.00
2022-07-30T20:19:36.155Z,86.20
2022-07-30T20:22:04.007Z,86.10
2022-07-30T20:24:31.441Z,86.50
2022-07-30T20:26:59.541Z,86.50
2022-07-30T20:29:27.079Z,86.40
2022-07-30T20:31:54.307Z,86.50
2022-07-30T20:34:23.503Z,86.60
2022-07-30T20:36:51.936Z,86.70
2022-07-30T20:39:21.084Z,86.60
2022-07-30T20:41:48.302Z,86.40
2022-07-30T20:44:23.342Z,86.40
2022-07-30T20:46:52.685Z,86.60
2022-07-30T20:49:23.801Z,86.70
2022-07-30T20:52:01.827Z,86.80
2022-07-30T20:54:30.725Z,86.80
2022-07-30T20:56:59.438Z,87.20
2022-07-30T20:59:27.786Z,87.30
2022-07-30T21:01:55.988Z,87.20
2022-07-30T21:04:25.725Z,87.20
2022-07-30T21:06:53.353Z,87.50
2022-07-30T21:09:20.702Z,87.90
2022-07-30T21:11:50.706Z,88.20
2022-07-30T21:14:18.681Z,88.40
2022-07-30T21:16:47.449Z,87.90
2022-07-30T21:19:15.400Z,88.80
2022-07-30T21:21:47.984Z,88.10
2022-07-30T21:24:16.766Z,88.10
2022-07-30T21:26:45.835Z,88.40
2022-07-30T21:29:13.118Z,88.30
2022-07-30T21:32:01.776Z,88.50
2022-07-30T21:34:35.511Z,89.00
2022-07-30T21:37:07.571Z,89.50
2022-07-30T21:39:39.881Z,89.90
2022-07-30T21:42:08.826Z,90.00
2022-07-30T21:44:37.576Z,90.20
2022-07-30T21:47:10.283Z,90.20
2022-07-30T21:49:38.805Z,90.50
2022-07-30T21:52:07.757Z,90.70
2022-07-30T21:54:48.029Z,91.20
2022-07-30T21:57:26.310Z,91.30
2022-07-30T21:59:55.178Z,91.40
2022-07-30T22:02:24.128Z,91.30
2022-07-30T22:04:52.195Z,91.50
2022-07-30T22:07:21.914Z,91.50
2022-07-30T22:09:49.410Z,91.70
2022-07-30T22:12:18.100Z,91.80
2022-07-30T22:14:46.908Z,91.90
2022-07-30T22:17:23.897Z,91.80
2022-07-30T22:20:08.860Z,92.00
2022-07-30T22:22:39.341Z,91.90
2022-07-30T22:25:09.522Z,91.90
2022-07-30T22:27:39.620Z,92.20
2022-07-30T22:30:09.715Z,92.00
2022-07-30T22:32:37.710Z,92.20
2022-07-30T22:35:07.101Z,92.20
2022-07-30T22:37:34.416Z,92.10
2022-07-30T22:40:01.973Z,92.20
2022-07-30T22:42:29.250Z,92.00
2022-07-30T22:44:57.674Z,92.10
2022-07-30T22:47:51.461Z,92.30
2022-07-30T22:50:14.688Z,92.30
2022-07-30T22:52:59.819Z,92.40
2022-07-30T22:55:32.005Z,92.50
2022-07-30T22:57:59.341Z,92.50
2022-07-30T23:00:27.693Z,92.50
2022-07-30T23:02:56.731Z,92.70
2022-07-30T23:05:24.802Z,92.80
2022-07-30T23:07:52.184Z,92.60
2022-07-30T23:10:20.768Z,92.80
2022-07-30T23:12:50.160Z,92.80
2022-07-30T23:15:18.159Z,93.00
2022-07-30T23:17:45.439Z,92.60
2022-07-30T23:20:15.705Z,92.90
2022-07-30T23:22:43.067Z,92.60
2022-07-30T23:25:11.172Z,92.70
2022-07-30T23:27:39.077Z,92.70
2022-07-30T23:30:11.318Z,92.60
2022-07-30T23:32:38.973Z,92.60
2022-07-30T23:35:07.644Z,92.60
2022-07-30T23:37:47.596Z,92.80
2022-07-30T23:40:17.077Z,92.90
2022-07-30T23:42:44.321Z,93.00
2022-07-30T23:45:11.632Z,93.00
2022-07-30T23:47:55.961Z,93.20
2022-07-30T23:52:53.754Z,93.10
2022-07-30T23:55:21.255Z,93.60
